TimeCDT,TemperatureF,Dew PointF,Humidity,Sea Level PressureIn,VisibilityMPH,Wind Direction,Wind SpeedMPH,Gust SpeedMPH,PrecipitationIn,Events,Conditions,WindDirDegrees,DateUTC
12:52 AM,52.0,46.9,83,29.68,10.0,NNW,4.6,-,0.00,Rain,Light Rain,330,2012-10-21 05:52:00
1:52 AM,50.0,46.4,87,29.69,10.0,Calm,Calm,-,N/A,Rain,Light Rain,0,2012-10-21 06:52:00
2:52 AM,51.8,48.2,88,29.67,10.0,North,10.4,-,N/A,Rain,Light Rain,360,2012-10-21 07:52:00
3:52 AM,51.1,46.9,86,29.69,10.0,Calm,Calm,-,0.00,,Scattered Clouds,0,2012-10-21 08:52:00
4:52 AM,48.2,46.4,93,29.72,10.0,Calm,Calm,-,N/A,,Partly Cloudy,0,2012-10-21 09:52:00
5:52 AM,50.0,46.0,86,29.76,10.0,NW,9.2,-,N/A,,Mostly Cloudy,320,2012-10-21 10:52:00
6:52 AM,48.9,44.1,83,29.78,10.0,NNW,16.1,20.7,N/A,,Overcast,340,2012-10-21 11:52:00
7:52 AM,46.4,39.2,76,29.81,10.0,NNW,8.1,24.2,N/A,,Overcast,330,2012-10-21 12:52:00
8:52 AM,46.0,37.9,73,29.87,10.0,NNW,8.1,-,N/A,,Overcast,330,2012-10-21 13:52:00
9:52 AM,46.4,37.4,71,29.89,10.0,NNW,16.1,-,N/A,,Overcast,340,2012-10-21 14:52:00
10:52 AM,45.0,36.0,71,29.93,10.0,North,12.7,-,N/A,,Overcast,350,2012-10-21 15:52:00
11:52 AM,46.4,37.4,71,29.92,10.0,North,12.7,-,N/A,,Overcast,360,2012-10-21 16:52:00
12:52 PM,46.9,36.0,66,29.95,10.0,North,12.7,-,N/A,,Mostly Cloudy,10,2012-10-21 17:52:00
1:52 PM,48.9,37.0,64,29.95,10.0,North,9.2,-,N/A,,Clear,360,2012-10-21 18:52:00
2:52 PM,50.0,34.0,54,29.96,10.0,North,10.4,-,N/A,,Clear,360,2012-10-21 19:52:00
3:52 PM,50.0,34.0,54,29.96,10.0,North,11.5,-,N/A,,Clear,10,2012-10-21 20:52:00
4:52 PM,50.0,33.8,54,29.98,10.0,North,8.1,-,N/A,,Clear,10,2012-10-21 21:52:00
5:52 PM,48.0,33.1,56,30.02,10.0,NE,5.8,-,N/A,,Partly Cloudy,50,2012-10-21 22:52:00
6:52 PM,46.9,34.0,61,30.05,10.0,ENE,3.5,-,N/A,,Overcast,60,2012-10-21 23:52:00
7:52 PM,45.0,35.1,68,30.06,10.0,East,3.5,-,N/A,,Overcast,80,2012-10-22 00:52:00
8:52 PM,44.1,35.1,71,30.08,10.0,East,3.5,-,N/A,,Mostly Cloudy,80,2012-10-22 01:52:00
9:52 PM,43.0,35.1,74,30.08,10.0,NNE,4.6,-,N/A,,Overcast,30,2012-10-22 02:52:00
10:52 PM,43.0,34.0,71,30.09,10.0,Calm,Calm,-,N/A,,Scattered Clouds,0,2012-10-22 03:52:00
11:52 PM,39.9,35.1,83,30.09,10.0,Calm,Calm,-,N/A,,Clear,0,2012-10-22 04:52:00